createdAt,value
2017-10-20T00:00:40.063Z,88.00
2017-10-20T00:01:40.070Z,86.10
2017-10-20T00:02:40.071Z,90.50
2017-10-20T00:03:40.079Z,90.00
2017-10-20T00:04:40.074Z,95.50
2017-10-20T00:05:40.079Z,87.60
2017-10-20T00:06:40.083Z,90.50
2017-10-20T00:07:40.092Z,90.70
2017-10-20T00:08:40.096Z,93.80
2017-10-20T00:09:40.094Z,91.00
2017-10-20T00:10:40.093Z,91.50
2017-10-20T00:11:40.106Z,98.60
2017-10-20T00:12:40.110Z,87.80
2017-10-20T00:13:40.105Z,86.40
2017-10-20T00:14:40.113Z,102.30
2017-10-20T00:15:40.114Z,105.50
2017-10-20T00:16:40.115Z,93.50
2017-10-20T00:17:40.119Z,98.80
2017-10-20T00:18:40.119Z,99.10
2017-10-20T00:19:40.121Z,90.80
2017-10-20T00:20:40.131Z,88.60
2017-10-20T00:21:40.131Z,91.70
2017-10-20T00:22:40.131Z,93.60
2017-10-20T00:23:40.138Z,95.30
2017-10-20T00:24:40.138Z,99.90
2017-10-20T00:25:40.141Z,92.70
2017-10-20T00:26:40.145Z,99.50
2017-10-20T00:27:40.146Z,95.90
2017-10-20T00:28:40.151Z,94.10
2017-10-20T00:29:40.152Z,98.70
2017-10-20T00:30:40.158Z,102.30
2017-10-20T00:31:40.165Z,96.30
2017-10-20T00:32:40.162Z,95.60
2017-10-20T00:33:40.171Z,89.90
2017-10-20T00:34:40.170Z,97.30
2017-10-20T00:35:40.172Z,87.70
2017-10-20T00:36:40.179Z,95.80
2017-10-20T00:37:40.179Z,95.10
2017-10-20T00:38:40.181Z,92.80
2017-10-20T00:39:40.185Z,96.90
2017-10-20T00:40:40.189Z,99.90
2017-10-20T00:41:40.188Z,95.50
2017-10-20T00:42:40.195Z,94.40
2017-10-20T00:43:40.198Z,84.40
2017-10-20T00:44:40.198Z,93.20
2017-10-20T00:45:40.208Z,88.60
2017-10-20T00:46:40.213Z,91.70
2017-10-20T00:47:40.214Z,95.60
2017-10-20T00:48:40.215Z,102.90
2017-10-20T00:49:40.225Z,90.70
2017-10-20T00:50:40.223Z,93.50
2017-10-20T00:51:40.223Z,95.60
2017-10-20T00:52:40.223Z,87.30
2017-10-20T00:53:40.231Z,90.50
2017-10-20T00:54:40.229Z,91.30
2017-10-20T00:55:40.233Z,85.10
2017-10-20T00:56:40.234Z,74.60
2017-10-20T00:57:40.240Z,81.50
2017-10-20T00:58:40.245Z,87.20
2017-10-20T00:59:40.245Z,94.70
2017-10-20T01:00:40.248Z,84.80
2017-10-20T01:01:40.253Z,89.80
2017-10-20T01:02:40.258Z,80.90
2017-10-20T01:03:40.261Z,82.70
2017-10-20T01:04:40.265Z,87.80
2017-10-20T01:05:40.263Z,87.20
2017-10-20T01:06:40.277Z,83.50
2017-10-20T01:07:40.289Z,86.70
2017-10-20T01:08:40.273Z,79.90
2017-10-20T01:09:40.280Z,88.10
2017-10-20T01:10:40.279Z,93.20
2017-10-20T01:11:40.283Z,80.20
2017-10-20T01:12:40.286Z,81.90
2017-10-20T01:13:40.291Z,82.90
2017-10-20T01:14:40.297Z,78.90
2017-10-20T01:15:40.296Z,78.30
2017-10-20T01:16:40.306Z,82.60
2017-10-20T01:17:40.299Z,79.30
2017-10-20T01:18:40.305Z,79.50
2017-10-20T01:19:40.308Z,76.80
2017-10-20T01:20:40.308Z,80.70
2017-10-20T01:21:40.310Z,83.20
2017-10-20T01:22:40.316Z,82.30
2017-10-20T01:23:40.326Z,91.90
2017-10-20T01:24:40.323Z,77.30
2017-10-20T01:25:40.323Z,81.00
2017-10-20T01:26:40.325Z,80.50
2017-10-20T01:27:40.333Z,82.80
2017-10-20T01:28:40.335Z,87.00
2017-10-20T01:29:40.367Z,88.40
2017-10-20T01:30:40.341Z,78.50
2017-10-20T01:31:40.346Z,73.70
2017-10-20T01:32:40.349Z,81.70
2017-10-20T01:33:40.357Z,86.80
2017-10-20T01:34:40.356Z,76.40
2017-10-20T01:35:40.354Z,77.10
2017-10-20T01:36:40.359Z,72.10
2017-10-20T01:37:40.361Z,82.40
2017-10-20T01:38:40.362Z,81.30
2017-10-20T01:39:40.369Z,81.90
2017-10-20T01:40:40.374Z,78.30
2017-10-20T01:41:40.375Z,85.50
2017-10-20T01:42:40.375Z,78.90
2017-10-20T01:43:40.377Z,83.70
2017-10-20T01:44:40.413Z,78.80
2017-10-20T01:45:40.385Z,80.20
2017-10-20T01:46:40.392Z,77.10
2017-10-20T01:47:40.393Z,78.40
2017-10-20T01:48:40.395Z,81.10
2017-10-20T01:49:40.396Z,81.00
2017-10-20T01:50:40.400Z,72.50
2017-10-20T01:51:40.406Z,69.70
2017-10-20T01:52:40.410Z,83.30
2017-10-20T01:53:40.405Z,78.90
2017-10-20T01:54:40.410Z,82.50
2017-10-20T01:55:40.417Z,80.30
2017-10-20T01:56:40.417Z,84.80
2017-10-20T01:57:40.422Z,73.00
2017-10-20T01:58:40.431Z,78.50
2017-10-20T01:59:40.427Z,77.30
2017-10-20T02:00:40.435Z,75.50
2017-10-20T02:01:40.431Z,68.90
2017-10-20T02:02:40.444Z,64.90
2017-10-20T02:03:40.445Z,78.20
2017-10-20T02:04:40.445Z,82.90
2017-10-20T02:05:40.445Z,72.10
2017-10-20T02:06:40.446Z,80.40
2017-10-20T02:07:40.453Z,77.10
2017-10-20T02:08:40.457Z,78.40
2017-10-20T02:09:40.460Z,82.30
2017-10-20T02:10:40.465Z,79.10
2017-10-20T02:11:40.462Z,78.30
2017-10-20T02:12:40.481Z,77.10
2017-10-20T02:13:40.470Z,82.20
2017-10-20T02:14:40.473Z,75.50
2017-10-20T02:15:40.473Z,73.60
2017-10-20T02:16:40.485Z,77.40
2017-10-20T02:17:40.479Z,80.90
2017-10-20T02:18:40.485Z,80.30
2017-10-20T02:19:40.484Z,84.00
2017-10-20T02:20:40.487Z,81.50
2017-10-20T02:21:40.495Z,77.30
2017-10-20T02:22:40.503Z,82.80
2017-10-20T02:23:40.505Z,76.70
2017-10-20T02:24:40.497Z,87.90
2017-10-20T02:25:40.502Z,83.60
2017-10-20T02:26:40.504Z,81.80
2017-10-20T02:27:40.509Z,70.80
2017-10-20T02:28:40.513Z,78.80
2017-10-20T02:29:40.514Z,74.50
2017-10-20T02:30:40.515Z,76.00
2017-10-20T02:31:40.576Z,69.20
2017-10-20T02:32:40.520Z,76.60
2017-10-20T02:33:40.526Z,76.60
2017-10-20T02:34:40.529Z,73.80
2017-10-20T02:35:40.531Z,81.40
2017-10-20T02:36:40.536Z,74.30
2017-10-20T02:37:40.539Z,79.40
2017-10-20T02:38:40.546Z,73.20
2017-10-20T02:39:40.547Z,69.10
2017-10-20T02:40:40.549Z,75.00
2017-10-20T02:41:40.553Z,70.40
2017-10-20T02:42:40.552Z,65.90
2017-10-20T02:43:40.553Z,73.00
2017-10-20T02:44:40.559Z,71.90
2017-10-20T02:45:40.566Z,65.70
2017-10-20T02:46:40.565Z,69.80
2017-10-20T02:47:40.565Z,69.90
2017-10-20T02:48:40.571Z,70.00
2017-10-20T02:49:40.574Z,71.90
2017-10-20T02:50:40.583Z,74.80
2017-10-20T02:51:40.582Z,73.50
2017-10-20T02:52:40.583Z,71.10
2017-10-20T02:53:40.583Z,78.00
2017-10-20T02:54:40.588Z,74.40
2017-10-20T02:55:40.588Z,73.10
2017-10-20T02:56:40.596Z,82.40
2017-10-20T02:57:40.596Z,77.30
2017-10-20T02:58:40.598Z,73.50
2017-10-20T02:59:40.607Z,77.30
2017-10-20T03:00:40.606Z,70.10
2017-10-20T03:01:40.608Z,73.00
2017-10-20T03:02:40.620Z,66.30
2017-10-20T03:03:40.615Z,68.70
2017-10-20T03:04:40.615Z,70.40
2017-10-20T03:05:40.626Z,77.90
2017-10-20T03:06:40.624Z,75.00
2017-10-20T03:07:40.630Z,66.70
2017-10-20T03:08:40.625Z,74.30
2017-10-20T03:09:40.633Z,67.80
2017-10-20T03:10:40.633Z,74.30
2017-10-20T03:11:40.637Z,70.70
2017-10-20T03:12:40.637Z,73.10
2017-10-20T03:13:40.648Z,70.20
2017-10-20T03:14:40.651Z,66.60
2017-10-20T03:15:40.653Z,64.90
2017-10-20T03:16:40.648Z,68.00
2017-10-20T03:17:40.657Z,65.20
2017-10-20T03:18:40.658Z,67.50
2017-10-20T03:19:40.659Z,74.10
2017-10-20T03:20:40.665Z,77.80
2017-10-20T03:21:40.664Z,62.30
2017-10-20T03:22:40.676Z,64.70
2017-10-20T03:23:40.673Z,62.80
2017-10-20T03:24:40.674Z,66.30
2017-10-20T03:25:40.674Z,71.60
2017-10-20T03:26:40.683Z,71.70
2017-10-20T03:27:40.687Z,69.90
2017-10-20T03:28:40.683Z,69.70
2017-10-20T03:29:40.691Z,75.70
2017-10-20T03:30:40.695Z,71.90
2017-10-20T03:31:40.695Z,67.00
2017-10-20T03:32:40.693Z,69.30
2017-10-20T03:33:40.703Z,66.90
2017-10-20T03:34:40.699Z,66.70
2017-10-20T03:35:40.706Z,66.70
2017-10-20T03:36:40.706Z,68.70
2017-10-20T03:37:40.710Z,64.50
2017-10-20T03:38:40.716Z,65.70
2017-10-20T03:39:40.717Z,70.80
2017-10-20T03:40:40.728Z,72.80
2017-10-20T03:41:40.726Z,60.70
2017-10-20T03:42:40.723Z,61.60
2017-10-20T03:43:40.724Z,68.90
2017-10-20T03:44:40.732Z,67.30
2017-10-20T03:45:40.734Z,66.00
2017-10-20T03:46:40.736Z,66.10
2017-10-20T03:47:40.745Z,67.60
2017-10-20T03:48:40.740Z,75.00
2017-10-20T03:49:40.745Z,70.10
2017-10-20T03:50:40.764Z,72.30
2017-10-20T03:51:40.752Z,70.30
2017-10-20T03:52:40.758Z,59.10
2017-10-20T03:53:40.757Z,64.30
2017-10-20T03:54:40.759Z,74.40
2017-10-20T03:55:40.759Z,64.20
2017-10-20T03:56:40.769Z,70.30
2017-10-20T03:57:40.765Z,66.00
2017-10-20T03:58:40.770Z,68.30
2017-10-20T03:59:40.778Z,72.80
2017-10-20T04:00:40.775Z,66.30
2017-10-20T04:01:40.784Z,67.60
2017-10-20T04:02:40.783Z,73.20
2017-10-20T04:03:40.782Z,62.30
2017-10-20T04:04:40.786Z,75.20
2017-10-20T04:05:40.795Z,68.40
2017-10-20T04:06:40.794Z,79.70
2017-10-20T04:07:40.796Z,71.70
2017-10-20T04:08:40.801Z,66.50
2017-10-20T04:09:40.805Z,61.10
2017-10-20T04:10:40.805Z,61.10
2017-10-20T04:11:40.805Z,58.30
2017-10-20T04:12:40.810Z,61.30
2017-10-20T04:13:40.811Z,61.10
2017-10-20T04:14:40.813Z,70.80
2017-10-20T04:15:40.813Z,62.60
2017-10-20T04:16:40.817Z,58.40
2017-10-20T04:17:40.824Z,61.40
2017-10-20T04:18:40.828Z,59.70
2017-10-20T04:19:40.828Z,59.40
2017-10-20T04:20:40.835Z,64.00
2017-10-20T04:21:40.834Z,59.80
2017-10-20T04:22:40.835Z,64.50
2017-10-20T04:23:40.835Z,56.20
2017-10-20T04:24:40.852Z,63.40
2017-10-20T04:25:40.851Z,66.70
2017-10-20T04:26:40.853Z,61.40
2017-10-20T04:27:40.853Z,78.10
2017-10-20T04:28:40.850Z,67.50
2017-10-20T04:29:40.864Z,64.00
2017-10-20T04:30:40.864Z,65.10
2017-10-20T04:31:40.865Z,64.10
2017-10-20T04:32:40.863Z,59.00
2017-10-20T04:33:40.869Z,54.70
2017-10-20T04:34:40.869Z,60.10
2017-10-20T04:35:40.869Z,63.40
2017-10-20T04:36:40.874Z,52.30
2017-10-20T04:37:40.890Z,56.10
2017-10-20T04:38:40.884Z,60.30
2017-10-20T04:39:40.886Z,55.00
2017-10-20T04:40:40.883Z,64.60
2017-10-20T04:41:40.893Z,62.00
2017-10-20T04:42:40.890Z,60.00
2017-10-20T04:43:40.896Z,61.70
2017-10-20T04:44:40.905Z,69.80
2017-10-20T04:45:40.895Z,65.60
2017-10-20T04:46:40.904Z,60.50
2017-10-20T04:47:40.904Z,62.90
2017-10-20T04:48:40.912Z,59.10
2017-10-20T04:49:40.911Z,54.80
2017-10-20T04:50:40.914Z,62.90
2017-10-20T04:51:40.912Z,61.40
2017-10-20T04:52:40.919Z,57.00
2017-10-20T04:53:40.922Z,67.20
2017-10-20T04:54:40.921Z,68.80
2017-10-20T04:55:40.924Z,62.00
2017-10-20T04:56:40.928Z,60.10
2017-10-20T04:57:40.932Z,55.20
2017-10-20T04:58:40.937Z,62.10
2017-10-20T04:59:40.935Z,62.80
2017-10-20T05:00:40.938Z,61.20
2017-10-20T05:01:40.940Z,57.00
2017-10-20T05:02:40.947Z,57.50
2017-10-20T05:03:40.948Z,52.30
2017-10-20T05:04:40.954Z,50.30
2017-10-20T05:05:40.954Z,57.00
2017-10-20T05:06:40.954Z,57.30
2017-10-20T05:07:40.963Z,59.90
2017-10-20T05:08:40.962Z,56.10
2017-10-20T05:09:40.963Z,52.30
2017-10-20T05:10:40.970Z,55.20
2017-10-20T05:11:40.972Z,54.30
2017-10-20T05:12:40.971Z,56.10
2017-10-20T05:13:40.973Z,53.90
2017-10-20T05:14:40.976Z,58.70
2017-10-20T05:15:40.981Z,60.60
2017-10-20T05:16:40.985Z,56.70
2017-10-20T05:17:40.989Z,56.50
2017-10-20T05:18:40.990Z,60.50
2017-10-20T05:19:40.988Z,57.90
2017-10-20T05:20:40.990Z,56.30
2017-10-20T05:21:40.998Z,50.80
2017-10-20T05:22:41.007Z,57.80
2017-10-20T05:23:41.004Z,58.10
2017-10-20T05:24:41.010Z,56.30
2017-10-20T05:25:41.003Z,57.50
2017-10-20T05:26:41.013Z,55.50
2017-10-20T05:27:41.014Z,54.90
2017-10-20T05:28:41.012Z,66.10
2017-10-20T05:29:41.016Z,58.90
2017-10-20T05:30:41.025Z,55.90
2017-10-20T05:31:41.019Z,56.70
2017-10-20T05:32:41.025Z,52.50
2017-10-20T05:33:41.028Z,59.50
2017-10-20T05:34:41.031Z,57.40
2017-10-20T05:35:41.032Z,52.80
2017-10-20T05:36:41.038Z,51.10
2017-10-20T05:37:41.051Z,62.60
2017-10-20T05:40:13.159Z,59.40
2017-10-20T05:41:13.121Z,58.30
2017-10-20T05:42:13.125Z,55.30
2017-10-20T05:43:13.129Z,54.60
2017-10-20T05:44:13.128Z,58.60
2017-10-20T05:45:13.138Z,54.60
2017-10-20T05:46:13.142Z,57.90
2017-10-20T05:47:13.138Z,58.50
2017-10-20T05:48:13.145Z,55.80
2017-10-20T05:49:13.148Z,57.50
2017-10-20T05:50:13.144Z,57.10
2017-10-20T05:51:13.145Z,54.20
2017-10-20T05:52:13.153Z,57.50
2017-10-20T05:53:13.155Z,53.60
2017-10-20T05:54:13.161Z,53.90
2017-10-20T05:55:13.159Z,57.60
2017-10-20T05:56:13.162Z,53.10
2017-10-20T05:57:13.163Z,66.10
2017-10-20T05:58:13.172Z,51.20
2017-10-20T05:59:13.171Z,57.80
2017-10-20T06:00:13.204Z,49.40
2017-10-20T06:01:13.188Z,52.10
2017-10-20T06:02:13.182Z,52.90
2017-10-20T06:03:13.181Z,53.60
2017-10-20T06:04:13.188Z,51.60
2017-10-20T06:05:13.187Z,50.30
2017-10-20T06:06:13.191Z,53.80
2017-10-20T06:07:13.219Z,46.90
2017-10-20T06:08:13.193Z,50.20
2017-10-20T06:09:13.198Z,47.80
2017-10-20T06:10:13.199Z,51.00
2017-10-20T06:11:13.203Z,47.60
2017-10-20T06:12:13.203Z,53.00
2017-10-20T06:13:13.205Z,48.70
2017-10-20T06:14:13.365Z,51.30
2017-10-20T06:15:13.213Z,48.30
2017-10-20T06:16:13.215Z,51.70
2017-10-20T06:17:13.221Z,52.60
2017-10-20T06:18:13.227Z,50.70
2017-10-20T06:19:13.226Z,51.70
2017-10-20T06:20:13.226Z,47.20
2017-10-20T06:21:13.225Z,49.20
2017-10-20T06:22:13.230Z,55.10
2017-10-20T06:23:13.239Z,53.20
2017-10-20T06:24:13.239Z,51.00
2017-10-20T06:25:13.241Z,47.50
2017-10-20T06:26:13.240Z,49.10
2017-10-20T06:27:13.243Z,48.90
2017-10-20T06:28:13.246Z,55.00
2017-10-20T06:29:13.253Z,51.60
2017-10-20T06:30:13.253Z,54.00
2017-10-20T06:31:13.257Z,46.90
2017-10-20T06:32:13.260Z,44.80
2017-10-20T06:33:13.258Z,45.90
2017-10-20T06:34:13.278Z,46.60
2017-10-20T06:35:13.265Z,46.80
2017-10-20T06:36:13.273Z,49.80
2017-10-20T06:37:13.275Z,46.70
2017-10-20T06:38:13.275Z,46.40
2017-10-20T06:39:13.281Z,44.00
2017-10-20T06:40:13.283Z,41.70
2017-10-20T06:41:13.283Z,51.60
2017-10-20T06:42:13.290Z,53.90
2017-10-20T06:43:13.287Z,46.80
2017-10-20T06:44:13.301Z,52.50
2017-10-20T06:45:13.296Z,48.50
2017-10-20T06:46:13.386Z,45.10
2017-10-20T06:47:13.302Z,48.40
2017-10-20T06:48:13.308Z,46.50
2017-10-20T06:49:13.304Z,45.60
2017-10-20T06:50:13.310Z,49.20
2017-10-20T06:51:13.310Z,43.60
2017-10-20T06:52:13.326Z,46.60
2017-10-20T06:53:13.314Z,51.40
2017-10-20T06:54:13.317Z,51.10
2017-10-20T06:55:13.321Z,45.10
2017-10-20T06:56:13.323Z,46.50
2017-10-20T06:57:13.351Z,47.60
2017-10-20T06:58:13.334Z,47.80
2017-10-20T06:59:13.335Z,49.60
2017-10-20T07:00:13.334Z,46.70
2017-10-20T07:01:13.341Z,44.10
2017-10-20T07:02:13.339Z,49.40
2017-10-20T07:03:13.350Z,44.70
2017-10-20T07:04:13.358Z,48.90
2017-10-20T07:05:13.350Z,43.80
2017-10-20T07:06:13.382Z,41.00
2017-10-20T07:07:13.352Z,46.10
2017-10-20T07:08:13.417Z,47.60
2017-10-20T07:09:13.358Z,46.20
2017-10-20T07:10:13.362Z,50.30
2017-10-20T07:11:13.375Z,42.50
2017-10-20T07:12:13.374Z,48.60
2017-10-20T07:13:13.381Z,45.50
2017-10-20T07:14:13.372Z,44.60
2017-10-20T07:15:13.383Z,45.00
2017-10-20T07:16:13.395Z,48.10
2017-10-20T07:17:13.378Z,47.40
2017-10-20T07:18:13.384Z,44.40
2017-10-20T07:19:13.387Z,45.50
2017-10-20T07:20:13.424Z,47.80
2017-10-20T07:21:13.401Z,45.50
2017-10-20T07:22:13.431Z,43.50
2017-10-20T07:23:13.402Z,44.60
2017-10-20T07:24:13.409Z,45.60
2017-10-20T07:25:13.403Z,42.00
2017-10-20T07:26:13.412Z,46.10
2017-10-20T07:27:13.410Z,51.60
2017-10-20T07:28:13.415Z,54.70
2017-10-20T07:29:13.418Z,57.90
2017-10-20T07:31:13.755Z,52.70
2017-10-20T07:32:13.428Z,41.50
2017-10-20T07:34:13.433Z,46.70
2017-10-20T07:35:13.432Z,48.90
2017-10-20T07:36:13.438Z,43.60
2017-10-20T07:37:13.437Z,48.50
2017-10-20T07:38:13.444Z,46.00
2017-10-20T07:39:13.444Z,48.10
2017-10-20T07:40:13.444Z,45.60
2017-10-20T07:41:13.447Z,50.30
2017-10-20T07:42:13.502Z,45.70
2017-10-20T07:43:13.971Z,45.70
2017-10-20T07:44:13.764Z,46.40
2017-10-20T07:45:13.953Z,50.70
2017-10-20T07:46:13.621Z,49.20
2017-10-20T07:47:13.463Z,44.40
2017-10-20T07:48:13.475Z,49.00
2017-10-20T07:49:13.475Z,53.90
2017-10-20T07:50:13.484Z,46.90
2017-10-20T07:51:13.480Z,54.20
2017-10-20T07:52:13.481Z,49.90
2017-10-20T07:53:13.489Z,42.80
2017-10-20T07:54:13.486Z,40.20
2017-10-20T07:55:13.492Z,45.50
2017-10-20T07:56:13.494Z,52.80
2017-10-20T07:57:13.512Z,45.10
2017-10-20T07:58:13.508Z,43.20
2017-10-20T07:59:13.518Z,43.30
2017-10-20T08:00:13.506Z,38.50
2017-10-20T08:01:13.508Z,40.00
2017-10-20T08:02:13.515Z,38.90
2017-10-20T08:03:13.518Z,38.70
2017-10-20T08:04:13.515Z,45.60
2017-10-20T08:05:13.518Z,52.40
2017-10-20T08:06:13.522Z,43.00
2017-10-20T08:07:13.526Z,47.70
2017-10-20T08:08:13.538Z,42.20
2017-10-20T08:09:13.533Z,48.20
2017-10-20T08:10:13.532Z,72.10
2017-10-20T08:11:13.538Z,44.30
2017-10-20T08:12:13.544Z,49.00
2017-10-20T08:13:13.542Z,42.40
2017-10-20T08:14:13.543Z,44.40
2017-10-20T08:15:13.546Z,51.00
2017-10-20T08:16:13.549Z,45.70
2017-10-20T08:17:13.550Z,40.60
2017-10-20T08:18:13.561Z,41.20
2017-10-20T08:19:13.560Z,37.10
2017-10-20T08:20:13.564Z,38.10
2017-10-20T08:21:13.567Z,40.20
2017-10-20T08:22:13.574Z,40.30
2017-10-20T08:23:13.576Z,41.20
2017-10-20T08:24:13.575Z,41.30
2017-10-20T08:25:13.576Z,39.20
2017-10-20T08:26:13.578Z,40.40
2017-10-20T08:27:13.588Z,40.00
2017-10-20T08:28:13.594Z,42.70
2017-10-20T08:29:13.677Z,37.60
2017-10-20T08:30:13.601Z,40.70
2017-10-20T08:31:13.596Z,42.90
2017-10-20T08:32:13.603Z,42.80
2017-10-20T08:33:13.599Z,38.40
2017-10-20T08:34:13.605Z,37.50
2017-10-20T08:35:13.606Z,39.40
2017-10-20T08:36:13.611Z,36.80
2017-10-20T08:37:13.612Z,34.50
2017-10-20T08:38:13.615Z,39.00
2017-10-20T08:39:13.621Z,37.20
2017-10-20T08:40:13.626Z,37.80
2017-10-20T08:41:13.627Z,38.90
2017-10-20T08:42:13.631Z,38.60
2017-10-20T08:43:13.634Z,39.90
2017-10-20T08:44:13.636Z,37.20
2017-10-20T08:45:13.648Z,39.50
2017-10-20T08:46:13.649Z,39.50
2017-10-20T08:47:13.648Z,35.20
2017-10-20T08:48:13.651Z,34.40
2017-10-20T08:49:13.656Z,37.40
2017-10-20T08:50:13.656Z,36.80
2017-10-20T08:51:13.660Z,35.00
2017-10-20T08:52:13.659Z,35.10
2017-10-20T08:53:13.667Z,36.30
2017-10-20T08:54:13.674Z,36.10
2017-10-20T08:55:13.672Z,38.00
2017-10-20T08:56:13.676Z,36.00
2017-10-20T08:57:13.678Z,33.30
2017-10-20T08:58:13.682Z,32.60
2017-10-20T08:59:13.687Z,38.00
2017-10-20T09:00:13.695Z,41.80
2017-10-20T09:01:13.698Z,35.30
2017-10-20T09:02:13.702Z,32.20
2017-10-20T09:03:13.715Z,35.50
2017-10-20T09:04:13.748Z,36.40
2017-10-20T09:05:13.709Z,33.60
2017-10-20T09:06:13.718Z,33.60
2017-10-20T09:07:13.720Z,36.30
2017-10-20T09:08:13.726Z,34.10
2017-10-20T09:09:13.724Z,34.90
2017-10-20T09:10:13.722Z,36.50
2017-10-20T09:11:13.732Z,34.10
2017-10-20T09:13:45.357Z,35.90
2017-10-20T09:14:45.327Z,33.20
2017-10-20T09:15:45.327Z,32.70
2017-10-20T09:17:45.335Z,31.60
2017-10-20T09:18:45.559Z,29.50
2017-10-20T09:19:45.339Z,34.50
2017-10-20T09:20:45.347Z,36.80
2017-10-20T09:21:45.351Z,29.50
2017-10-20T09:22:45.352Z,32.10
2017-10-20T09:23:45.358Z,34.70
2017-10-20T09:24:45.369Z,32.10
2017-10-20T09:25:45.385Z,34.60
2017-10-20T09:26:45.367Z,32.30
2017-10-20T09:27:45.375Z,29.80
2017-10-20T09:28:45.376Z,30.30
2017-10-20T09:29:45.387Z,35.60
2017-10-20T09:30:45.384Z,29.20
2017-10-20T09:31:45.386Z,33.40
2017-10-20T09:32:45.396Z,32.50
2017-10-20T09:33:45.394Z,31.90
2017-10-20T09:34:45.402Z,29.60
2017-10-20T09:35:45.404Z,31.00
2017-10-20T09:36:45.410Z,32.40
2017-10-20T09:37:45.412Z,32.10
2017-10-20T09:38:45.419Z,34.20
2017-10-20T09:39:45.417Z,31.90
2017-10-20T09:40:45.422Z,32.70
2017-10-20T09:41:45.434Z,33.40
2017-10-20T09:42:45.427Z,29.60
2017-10-20T09:43:45.433Z,31.40
2017-10-20T09:44:45.437Z,30.50
2017-10-20T09:45:45.445Z,31.50
2017-10-20T09:46:45.443Z,30.30
2017-10-20T09:47:45.449Z,28.20
2017-10-20T09:48:45.452Z,30.50
2017-10-20T09:49:45.456Z,25.10
2017-10-20T09:50:45.461Z,30.20
2017-10-20T09:51:45.472Z,29.90
2017-10-20T09:52:45.468Z,31.40
2017-10-20T09:53:45.555Z,30.70
2017-10-20T09:54:45.479Z,30.00
2017-10-20T09:55:45.484Z,28.00
2017-10-20T09:56:45.492Z,32.80
2017-10-20T09:57:45.489Z,29.80
2017-10-20T09:58:45.496Z,32.60
2017-10-20T09:59:45.501Z,30.60
2017-10-20T10:00:45.505Z,28.60
2017-10-20T10:01:45.505Z,26.20
2017-10-20T10:02:45.521Z,29.40
2017-10-20T10:03:45.676Z,31.40
2017-10-20T10:04:45.519Z,25.80
2017-10-20T10:05:45.525Z,27.80
2017-10-20T10:06:45.527Z,24.70
2017-10-20T10:07:45.530Z,26.00
2017-10-20T10:08:45.534Z,29.60
2017-10-20T10:09:45.570Z,29.40
2017-10-20T10:10:45.542Z,25.80
2017-10-20T10:11:45.566Z,24.10
2017-10-20T10:12:45.560Z,28.00
2017-10-20T10:13:45.554Z,26.60
2017-10-20T10:14:45.561Z,28.50
2017-10-20T10:15:45.566Z,31.60
2017-10-20T10:16:45.574Z,25.90
2017-10-20T10:17:45.573Z,26.40
2017-10-20T10:18:45.580Z,27.30
2017-10-20T10:19:45.581Z,26.90
2017-10-20T10:20:45.584Z,24.20
2017-10-20T10:21:45.590Z,24.30
2017-10-20T10:22:45.589Z,25.50
2017-10-20T10:23:45.605Z,28.20
2017-10-20T10:24:45.894Z,24.20
2017-10-20T10:25:47.223Z,25.60
2017-10-20T10:26:45.609Z,24.20
2017-10-20T10:27:45.615Z,28.80
2017-10-20T10:28:45.617Z,28.40
2017-10-20T10:29:45.624Z,24.70
2017-10-20T10:30:45.625Z,26.30
2017-10-20T10:31:45.632Z,28.50
2017-10-20T10:32:45.640Z,22.50
2017-10-20T10:33:45.640Z,25.10
2017-10-20T10:34:45.641Z,26.10
2017-10-20T10:35:45.645Z,25.50
2017-10-20T10:36:45.656Z,24.20
2017-10-20T10:37:45.663Z,24.80
2017-10-20T10:38:45.665Z,24.10
2017-10-20T10:39:45.679Z,31.90
2017-10-20T10:40:45.669Z,24.90
2017-10-20T10:41:45.674Z,26.40
2017-10-20T10:42:45.680Z,29.50
2017-10-20T10:43:45.686Z,25.10
2017-10-20T10:44:45.687Z,23.00
2017-10-20T10:45:45.690Z,28.20
2017-10-20T10:46:45.692Z,22.00
2017-10-20T10:47:45.698Z,26.50
2017-10-20T10:48:45.702Z,23.90
2017-10-20T10:49:45.709Z,29.90
2017-10-20T10:50:45.713Z,26.60
2017-10-20T10:51:45.725Z,34.70
2017-10-20T10:52:45.722Z,26.50
2017-10-20T10:53:45.727Z,25.50
2017-10-20T10:54:45.736Z,30.30
2017-10-20T10:55:45.736Z,26.20
2017-10-20T10:56:45.750Z,24.80
2017-10-20T10:57:45.751Z,22.40
2017-10-20T10:58:45.750Z,24.80
2017-10-20T10:59:45.752Z,27.10
2017-10-20T11:00:45.759Z,22.50
2017-10-20T11:01:45.760Z,25.70
2017-10-20T11:02:45.765Z,24.10
2017-10-20T11:03:45.769Z,22.60
2017-10-20T11:04:45.773Z,25.30
2017-10-20T11:05:45.776Z,27.50
2017-10-20T11:06:45.780Z,29.50
2017-10-20T11:07:45.786Z,29.50
2017-10-20T11:08:45.795Z,23.80
2017-10-20T11:09:45.794Z,25.20
2017-10-20T11:10:45.803Z,25.70
2017-10-20T11:11:45.805Z,25.20
2017-10-20T11:12:45.815Z,24.30
2017-10-20T11:13:45.811Z,27.20
2017-10-20T11:14:45.816Z,25.50
2017-10-20T11:15:45.822Z,26.90
2017-10-20T11:16:45.847Z,25.40
2017-10-20T11:17:45.827Z,25.80
2017-10-20T11:18:45.831Z,25.50
2017-10-20T11:19:46.275Z,23.60
2017-10-20T11:20:45.853Z,27.10
2017-10-20T11:21:45.853Z,26.80
2017-10-20T11:22:45.852Z,26.50
2017-10-20T11:23:45.860Z,23.60
2017-10-20T11:24:45.870Z,21.70
2017-10-20T11:25:45.862Z,31.30
2017-10-20T11:26:45.872Z,23.00
2017-10-20T11:27:45.871Z,22.80
2017-10-20T11:28:45.879Z,23.20
2017-10-20T11:29:45.881Z,25.70
2017-10-20T11:30:45.888Z,25.70
2017-10-20T11:31:45.891Z,25.30
2017-10-20T11:32:45.894Z,23.70
2017-10-20T11:33:45.904Z,25.30
2017-10-20T11:34:45.903Z,23.80
2017-10-20T11:35:45.906Z,24.30
2017-10-20T11:36:45.913Z,24.20
2017-10-20T11:37:45.922Z,26.70
2017-10-20T11:38:45.922Z,26.60
2017-10-20T11:39:45.929Z,23.80
2017-10-20T11:40:45.931Z,23.90
2017-10-20T11:41:45.930Z,24.00
2017-10-20T11:42:45.939Z,22.10
2017-10-20T11:43:45.941Z,24.00
2017-10-20T11:44:45.947Z,25.80
2017-10-20T11:45:45.947Z,31.50
2017-10-20T11:46:45.957Z,25.20
2017-10-20T11:47:45.958Z,24.70
2017-10-20T11:48:45.961Z,22.50
2017-10-20T11:49:45.976Z,23.40
2017-10-20T11:50:45.976Z,25.10
2017-10-20T11:51:45.976Z,23.50
2017-10-20T11:52:45.980Z,23.00
2017-10-20T11:53:45.997Z,24.60
2017-10-20T11:54:45.987Z,23.00
2017-10-20T11:55:45.992Z,21.30
2017-10-20T11:56:45.999Z,22.80
2017-10-20T11:57:45.998Z,23.00
2017-10-20T11:58:46.003Z,26.00
2017-10-20T11:59:46.007Z,27.00
2017-10-20T12:00:46.015Z,24.00
2017-10-20T12:01:46.014Z,22.90
2017-10-20T12:02:46.023Z,26.40
2017-10-20T12:03:46.031Z,36.30
2017-10-20T12:04:46.030Z,27.00
2017-10-20T12:05:46.037Z,25.30
2017-10-20T12:06:46.041Z,26.50
2017-10-20T12:07:46.043Z,23.20
2017-10-20T12:08:46.050Z,21.20
2017-10-20T12:09:46.048Z,21.90
2017-10-20T12:10:46.052Z,23.60
2017-10-20T12:11:46.062Z,26.20
2017-10-20T12:12:46.061Z,24.70
2017-10-20T12:13:46.067Z,21.30
2017-10-20T12:14:46.073Z,22.20
2017-10-20T12:15:46.080Z,26.60
2017-10-20T12:16:46.082Z,24.00
2017-10-20T12:17:46.089Z,25.10
2017-10-20T12:18:46.085Z,24.70
2017-10-20T12:19:46.092Z,25.00
2017-10-20T12:20:46.096Z,28.30
2017-10-20T12:21:46.098Z,23.00
2017-10-20T12:22:46.107Z,20.30
2017-10-20T12:23:46.113Z,24.80
2017-10-20T12:24:46.111Z,18.30
2017-10-20T12:25:46.123Z,21.20
2017-10-20T12:26:46.122Z,19.30
2017-10-20T12:27:46.128Z,20.00
2017-10-20T12:28:46.127Z,22.90
2017-10-20T12:29:46.132Z,22.60
2017-10-20T12:30:46.137Z,19.70
2017-10-20T12:31:46.142Z,21.80
2017-10-20T12:32:46.144Z,19.90
2017-10-20T12:33:46.148Z,17.50
2017-10-20T12:34:46.153Z,19.90
2017-10-20T12:35:46.156Z,19.10
2017-10-20T12:36:46.160Z,23.60
2017-10-20T12:37:46.173Z,21.00
2017-10-20T12:38:46.170Z,23.30
2017-10-20T12:39:46.173Z,21.90
2017-10-20T12:40:46.178Z,25.60
2017-10-20T12:41:46.182Z,20.00
2017-10-20T12:42:46.188Z,21.30
2017-10-20T12:43:46.193Z,20.40
2017-10-20T12:44:46.192Z,22.90
2017-10-20T12:45:46.206Z,19.90
2017-10-20T12:46:46.205Z,24.20
2017-10-20T12:47:46.210Z,19.70
2017-10-20T12:48:46.214Z,18.60
2017-10-20T12:49:46.212Z,26.90
2017-10-20T12:50:46.218Z,24.10
2017-10-20T12:51:46.228Z,23.90
2017-10-20T12:52:46.228Z,20.80
2017-10-20T12:53:46.227Z,22.50
2017-10-20T12:54:46.233Z,17.70
2017-10-20T12:55:46.236Z,19.90
2017-10-20T12:56:46.248Z,24.50
2017-10-20T12:57:46.242Z,22.40
2017-10-20T12:58:46.252Z,22.10